sensor_id;sensor_type;location;lat;lon;timestamp;temperature;humidity
76537;DHT22;65381;51.254;15.592;2023-03-16T00:01:06;-1.00;71.10
76537;DHT22;65381;51.254;15.592;2023-03-16T00:03:35;-1.00;71.10
76537;DHT22;65381;51.254;15.592;2023-03-16T00:06:03;-1.10;71.00
76537;DHT22;65381;51.254;15.592;2023-03-16T00:08:31;-1.10;71.00
76537;DHT22;65381;51.254;15.592;2023-03-16T00:11:00;-1.10;71.20
76537;DHT22;65381;51.254;15.592;2023-03-16T00:13:29;-1.10;71.20
76537;DHT22;65381;51.254;15.592;2023-03-16T00:15:59;-1.10;71.20
76537;DHT22;65381;51.254;15.592;2023-03-16T00:18:28;-1.10;71.20
76537;DHT22;65381;51.254;15.592;2023-03-16T00:20:59;-1.10;71.30
76537;DHT22;65381;51.254;15.592;2023-03-16T00:23:29;-1.10;71.40
76537;DHT22;65381;51.254;15.592;2023-03-16T00:26:05;-1.10;71.40
76537;DHT22;65381;51.254;15.592;2023-03-16T00:28:34;-1.20;71.40
76537;DHT22;65381;51.254;15.592;2023-03-16T00:31:04;-1.20;71.40
76537;DHT22;65381;51.254;15.592;2023-03-16T00:33:34;-1.20;71.50
76537;DHT22;65381;51.254;15.592;2023-03-16T00:36:07;-1.20;71.60
76537;DHT22;65381;51.254;15.592;2023-03-16T00:38:41;-1.20;71.60
76537;DHT22;65381;51.254;15.592;2023-03-16T00:41:14;-1.10;71.60
76537;DHT22;65381;51.254;15.592;2023-03-16T00:43:43;-1.20;71.60
76537;DHT22;65381;51.254;15.592;2023-03-16T00:46:14;-1.20;71.60
76537;DHT22;65381;51.254;15.592;2023-03-16T00:48:45;-1.30;71.70
76537;DHT22;65381;51.254;15.592;2023-03-16T00:51:15;-1.30;71.70
76537;DHT22;65381;51.254;15.592;2023-03-16T00:53:45;-1.30;71.80
76537;DHT22;65381;51.254;15.592;2023-03-16T00:56:14;-1.30;71.80
76537;DHT22;65381;51.254;15.592;2023-03-16T00:58:43;-1.30;71.90
76537;DHT22;65381;51.254;15.592;2023-03-16T01:01:15;-1.30;71.90
76537;DHT22;65381;51.254;15.592;2023-03-16T01:03:43;-1.30;72.10
76537;DHT22;65381;51.254;15.592;2023-03-16T01:06:14;-1.30;72.10
76537;DHT22;65381;51.254;15.592;2023-03-16T01:08:44;-1.30;72.10
76537;DHT22;65381;51.254;15.592;2023-03-16T01:11:15;-1.30;72.20
76537;DHT22;65381;51.254;15.592;2023-03-16T01:13:46;-1.20;72.20
76537;DHT22;65381;51.254;15.592;2023-03-16T01:16:17;-1.30;72.20
76537;DHT22;65381;51.254;15.592;2023-03-16T01:18:48;-1.30;72.20
76537;DHT22;65381;51.254;15.592;2023-03-16T01:21:17;-1.30;72.20
76537;DHT22;65381;51.254;15.592;2023-03-16T01:23:46;-1.30;72.30
76537;DHT22;65381;51.254;15.592;2023-03-16T01:26:14;-1.30;72.40
76537;DHT22;65381;51.254;15.592;2023-03-16T01:28:47;-1.30;72.50
76537;DHT22;65381;51.254;15.592;2023-03-16T01:31:16;-1.30;72.50
76537;DHT22;65381;51.254;15.592;2023-03-16T01:33:45;-1.30;72.50
76537;DHT22;65381;51.254;15.592;2023-03-16T01:36:19;-1.30;72.60
76537;DHT22;65381;51.254;15.592;2023-03-16T01:39:09;-1.30;72.70
76537;DHT22;65381;51.254;15.592;2023-03-16T01:41:43;-1.30;72.70
76537;DHT22;65381;51.254;15.592;2023-03-16T01:44:25;-1.30;72.70
76537;DHT22;65381;51.254;15.592;2023-03-16T01:47:05;-1.30;72.80
76537;DHT22;65381;51.254;15.592;2023-03-16T01:49:37;-1.40;72.80
76537;DHT22;65381;51.254;15.592;2023-03-16T01:52:12;-1.40;72.80
76537;DHT22;65381;51.254;15.592;2023-03-16T01:54:43;-1.40;72.90
76537;DHT22;65381;51.254;15.592;2023-03-16T01:57:25;-1.50;73.00
76537;DHT22;65381;51.254;15.592;2023-03-16T02:03:09;-1.50;73.00
76537;DHT22;65381;51.254;15.592;2023-03-16T02:12:17;-1.50;73.20
76537;DHT22;65381;51.254;15.592;2023-03-16T02:14:51;-1.50;73.10
76537;DHT22;65381;51.254;15.592;2023-03-16T02:17:22;-1.50;73.10
76537;DHT22;65381;51.254;15.592;2023-03-16T02:22:45;-1.50;73.30
76537;DHT22;65381;51.254;15.592;2023-03-16T02:25:16;-1.50;73.40
76537;DHT22;65381;51.254;15.592;2023-03-16T02:30:30;-1.30;73.40
76537;DHT22;65381;51.254;15.592;2023-03-16T02:33:01;-1.30;73.40
76537;DHT22;65381;51.254;15.592;2023-03-16T02:35:32;-1.30;73.50
76537;DHT22;65381;51.254;15.592;2023-03-16T02:38:02;-1.30;73.50
76537;DHT22;65381;51.254;15.592;2023-03-16T02:40:36;-1.30;73.50
76537;DHT22;65381;51.254;15.592;2023-03-16T02:43:17;-1.30;73.70
76537;DHT22;65381;51.254;15.592;2023-03-16T02:46:00;-1.30;73.70
76537;DHT22;65381;51.254;15.592;2023-03-16T02:48:43;-1.20;73.70
76537;DHT22;65381;51.254;15.592;2023-03-16T02:51:12;-1.10;73.70
76537;DHT22;65381;51.254;15.592;2023-03-16T02:53:41;-1.10;73.70
76537;DHT22;65381;51.254;15.592;2023-03-16T02:56:09;-1.00;73.60
76537;DHT22;65381;51.254;15.592;2023-03-16T02:58:37;-1.00;73.60
76537;DHT22;65381;51.254;15.592;2023-03-16T03:01:11;-1.00;73.70
76537;DHT22;65381;51.254;15.592;2023-03-16T03:03:39;-1.00;73.70
76537;DHT22;65381;51.254;15.592;2023-03-16T03:06:07;-1.00;73.70
76537;DHT22;65381;51.254;15.592;2023-03-16T03:08:37;-1.00;73.80
76537;DHT22;65381;51.254;15.592;2023-03-16T03:11:05;-1.00;73.90
76537;DHT22;65381;51.254;15.592;2023-03-16T03:13:33;-1.00;73.90
76537;DHT22;65381;51.254;15.592;2023-03-16T03:16:01;-0.90;74.00
76537;DHT22;65381;51.254;15.592;2023-03-16T03:18:30;-0.90;74.10
76537;DHT22;65381;51.254;15.592;2023-03-16T03:20:58;-0.90;74.10
76537;DHT22;65381;51.254;15.592;2023-03-16T03:23:27;-0.80;74.10
76537;DHT22;65381;51.254;15.592;2023-03-16T03:25:59;-0.80;74.30
76537;DHT22;65381;51.254;15.592;2023-03-16T03:28:28;-0.80;74.30
76537;DHT22;65381;51.254;15.592;2023-03-16T03:30:56;-0.70;74.30
76537;DHT22;65381;51.254;15.592;2023-03-16T03:33:26;-0.70;74.40
76537;DHT22;65381;51.254;15.592;2023-03-16T03:35:58;-0.70;74.40
76537;DHT22;65381;51.254;15.592;2023-03-16T03:38:32;-0.60;74.40
76537;DHT22;65381;51.254;15.592;2023-03-16T03:41:00;-0.60;74.40
76537;DHT22;65381;51.254;15.592;2023-03-16T03:43:32;-0.50;74.20
76537;DHT22;65381;51.254;15.592;2023-03-16T03:46:02;-0.50;74.20
76537;DHT22;65381;51.254;15.592;2023-03-16T03:48:33;-0.60;74.20
76537;DHT22;65381;51.254;15.592;2023-03-16T03:51:01;-0.60;74.30
76537;DHT22;65381;51.254;15.592;2023-03-16T03:53:45;-0.60;74.40
76537;DHT22;65381;51.254;15.592;2023-03-16T03:56:20;-0.60;74.40
76537;DHT22;65381;51.254;15.592;2023-03-16T03:58:49;-0.60;74.40
76537;DHT22;65381;51.254;15.592;2023-03-16T04:01:40;-0.70;74.40
76537;DHT22;65381;51.254;15.592;2023-03-16T04:04:08;-0.70;74.50
76537;DHT22;65381;51.254;15.592;2023-03-16T04:06:37;-0.70;74.40
76537;DHT22;65381;51.254;15.592;2023-03-16T04:09:05;-0.80;74.40
76537;DHT22;65381;51.254;15.592;2023-03-16T04:11:33;-0.90;74.50
76537;DHT22;65381;51.254;15.592;2023-03-16T04:14:02;-0.90;74.60
76537;DHT22;65381;51.254;15.592;2023-03-16T04:16:30;-1.00;74.60
76537;DHT22;65381;51.254;15.592;2023-03-16T04:18:59;-1.00;74.60
76537;DHT22;65381;51.254;15.592;2023-03-16T04:21:28;-1.10;74.70
76537;DHT22;65381;51.254;15.592;2023-03-16T04:23:56;-1.10;74.60
76537;DHT22;65381;51.254;15.592;2023-03-16T04:26:32;-1.10;74.60
76537;DHT22;65381;51.254;15.592;2023-03-16T04:29:03;-1.10;74.60
76537;DHT22;65381;51.254;15.592;2023-03-16T04:31:32;-1.20;74.60
76537;DHT22;65381;51.254;15.592;2023-03-16T04:34:01;-1.20;74.60
76537;DHT22;65381;51.254;15.592;2023-03-16T04:36:29;-1.30;74.70
76537;DHT22;65381;51.254;15.592;2023-03-16T04:39:01;-1.30;74.70
76537;DHT22;65381;51.254;15.592;2023-03-16T04:41:29;-1.30;74.70
76537;DHT22;65381;51.254;15.592;2023-03-16T04:44:13;-1.30;74.60
76537;DHT22;65381;51.254;15.592;2023-03-16T04:46:42;-1.30;74.70
76537;DHT22;65381;51.254;15.592;2023-03-16T04:49:11;-1.30;74.60
76537;DHT22;65381;51.254;15.592;2023-03-16T04:51:42;-1.30;74.70
76537;DHT22;65381;51.254;15.592;2023-03-16T04:54:14;-1.30;74.80
76537;DHT22;65381;51.254;15.592;2023-03-16T04:56:43;-1.30;74.80
76537;DHT22;65381;51.254;15.592;2023-03-16T04:59:35;-1.30;74.80
76537;DHT22;65381;51.254;15.592;2023-03-16T05:02:16;-1.40;74.70
76537;DHT22;65381;51.254;15.592;2023-03-16T05:04:47;-1.50;74.80
76537;DHT22;65381;51.254;15.592;2023-03-16T05:07:16;-1.40;74.90
76537;DHT22;65381;51.254;15.592;2023-03-16T05:09:49;-1.50;74.90
76537;DHT22;65381;51.254;15.592;2023-03-16T05:12:17;-1.40;75.00
76537;DHT22;65381;51.254;15.592;2023-03-16T05:14:47;-1.40;75.00
76537;DHT22;65381;51.254;15.592;2023-03-16T05:17:37;-1.50;75.00
76537;DHT22;65381;51.254;15.592;2023-03-16T05:20:06;-1.50;75.00
76537;DHT22;65381;51.254;15.592;2023-03-16T05:22:44;-1.40;75.00
76537;DHT22;65381;51.254;15.592;2023-03-16T05:25:24;-1.30;75.00
76537;DHT22;65381;51.254;15.592;2023-03-16T05:27:54;-1.30;75.10
76537;DHT22;65381;51.254;15.592;2023-03-16T05:30:30;-1.30;75.10
76537;DHT22;65381;51.254;15.592;2023-03-16T05:33:02;-1.30;75.20
76537;DHT22;65381;51.254;15.592;2023-03-16T05:35:31;-1.20;75.20
76537;DHT22;65381;51.254;15.592;2023-03-16T05:38:03;-1.20;75.30
76537;DHT22;65381;51.254;15.592;2023-03-16T05:40:35;-1.10;75.30
76537;DHT22;65381;51.254;15.592;2023-03-16T05:43:14;-1.10;75.40
76537;DHT22;65381;51.254;15.592;2023-03-16T05:45:49;-1.00;75.40
76537;DHT22;65381;51.254;15.592;2023-03-16T05:48:18;-0.90;75.50
76537;DHT22;65381;51.254;15.592;2023-03-16T05:50:53;-0.90;75.50
76537;DHT22;65381;51.254;15.592;2023-03-16T05:53:27;-0.80;75.60
76537;DHT22;65381;51.254;15.592;2023-03-16T05:56:04;-0.70;75.60
76537;DHT22;65381;51.254;15.592;2023-03-16T05:58:37;-0.70;75.70
76537;DHT22;65381;51.254;15.592;2023-03-16T06:01:08;-0.60;75.70
76537;DHT22;65381;51.254;15.592;2023-03-16T06:03:38;-0.60;75.80
76537;DHT22;65381;51.254;15.592;2023-03-16T06:06:13;-0.50;75.80
76537;DHT22;65381;51.254;15.592;2023-03-16T06:08:53;-0.40;75.90
76537;DHT22;65381;51.254;15.592;2023-03-16T06:11:24;-0.30;76.00
76537;DHT22;65381;51.254;15.592;2023-03-16T06:13:52;-0.20;76.00
76537;DHT22;65381;51.254;15.592;2023-03-16T06:16:21;-0.20;76.00
76537;DHT22;65381;51.254;15.592;2023-03-16T06:18:49;-0.10;76.10
76537;DHT22;65381;51.254;15.592;2023-03-16T06:21:20;0.00;76.10
76537;DHT22;65381;51.254;15.592;2023-03-16T06:23:52;0.00;76.20
76537;DHT22;65381;51.254;15.592;2023-03-16T06:26:20;0.30;76.90
76537;DHT22;65381;51.254;15.592;2023-03-16T06:28:49;0.90;79.00
76537;DHT22;65381;51.254;15.592;2023-03-16T06:31:21;1.90;80.20
76537;DHT22;65381;51.254;15.592;2023-03-16T06:33:50;3.00;80.90
76537;DHT22;65381;51.254;15.592;2023-03-16T06:36:19;4.00;80.80
76537;DHT22;65381;51.254;15.592;2023-03-16T06:38:52;4.90;79.90
76537;DHT22;65381;51.254;15.592;2023-03-16T06:41:29;5.50;79.70
76537;DHT22;65381;51.254;15.592;2023-03-16T06:43:57;6.10;79.80
76537;DHT22;65381;51.254;15.592;2023-03-16T06:46:27;6.70;79.80
76537;DHT22;65381;51.254;15.592;2023-03-16T06:48:58;7.30;79.20
76537;DHT22;65381;51.254;15.592;2023-03-16T06:51:29;7.80;78.40
76537;DHT22;65381;51.254;15.592;2023-03-16T06:53:58;8.20;78.30
76537;DHT22;65381;51.254;15.592;2023-03-16T06:56:26;8.80;78.30
76537;DHT22;65381;51.254;15.592;2023-03-16T06:58:55;9.50;78.40
76537;DHT22;65381;51.254;15.592;2023-03-16T07:01:25;10.60;77.80
76537;DHT22;65381;51.254;15.592;2023-03-16T07:03:54;11.40;75.70
76537;DHT22;65381;51.254;15.592;2023-03-16T07:06:27;11.90;75.20
76537;DHT22;65381;51.254;15.592;2023-03-16T07:08:56;12.10;74.30
76537;DHT22;65381;51.254;15.592;2023-03-16T07:11:28;12.10;73.20
76537;DHT22;65381;51.254;15.592;2023-03-16T07:13:57;12.30;73.80
76537;DHT22;65381;51.254;15.592;2023-03-16T07:16:29;13.00;73.40
76537;DHT22;65381;51.254;15.592;2023-03-16T07:19:00;13.70;72.50
76537;DHT22;65381;51.254;15.592;2023-03-16T07:21:29;14.10;70.90
76537;DHT22;65381;51.254;15.592;2023-03-16T07:24:09;14.40;70.30
76537;DHT22;65381;51.254;15.592;2023-03-16T07:26:41;14.30;68.70
76537;DHT22;65381;51.254;15.592;2023-03-16T07:29:14;14.10;68.40
76537;DHT22;65381;51.254;15.592;2023-03-16T07:31:44;14.10;68.60
76537;DHT22;65381;51.254;15.592;2023-03-16T07:34:18;14.00;68.00
76537;DHT22;65381;51.254;15.592;2023-03-16T07:36:52;14.10;68.40
76537;DHT22;65381;51.254;15.592;2023-03-16T07:39:23;14.30;67.50
76537;DHT22;65381;51.254;15.592;2023-03-16T07:41:57;14.50;66.80
76537;DHT22;65381;51.254;15.592;2023-03-16T07:44:49;14.70;66.50
76537;DHT22;65381;51.254;15.592;2023-03-16T07:47:19;14.60;65.20
76537;DHT22;65381;51.254;15.592;2023-03-16T07:49:49;14.40;65.40
76537;DHT22;65381;51.254;15.592;2023-03-16T07:52:18;14.40;64.60
76537;DHT22;65381;51.254;15.592;2023-03-16T07:54:47;14.30;64.50
76537;DHT22;65381;51.254;15.592;2023-03-16T07:57:16;14.30;63.60
76537;DHT22;65381;51.254;15.592;2023-03-16T07:59:44;14.30;64.30
76537;DHT22;65381;51.254;15.592;2023-03-16T08:02:17;14.70;64.40
76537;DHT22;65381;51.254;15.592;2023-03-16T08:04:48;15.20;63.40
76537;DHT22;65381;51.254;15.592;2023-03-16T08:07:18;15.30;62.80
76537;DHT22;65381;51.254;15.592;2023-03-16T08:09:52;15.50;62.50
76537;DHT22;65381;51.254;15.592;2023-03-16T08:12:27;15.40;61.60
76537;DHT22;65381;51.254;15.592;2023-03-16T08:14:55;15.50;61.50
76537;DHT22;65381;51.254;15.592;2023-03-16T08:17:28;16.00;62.20
76537;DHT22;65381;51.254;15.592;2023-03-16T08:19:58;17.20;61.50
76537;DHT22;65381;51.254;15.592;2023-03-16T08:22:28;17.80;59.70
76537;DHT22;65381;51.254;15.592;2023-03-16T08:24:56;17.60;58.50
76537;DHT22;65381;51.254;15.592;2023-03-16T08:27:25;17.30;59.20
76537;DHT22;65381;51.254;15.592;2023-03-16T08:29:59;18.20;60.20
76537;DHT22;65381;51.254;15.592;2023-03-16T08:32:35;19.50;58.30
76537;DHT22;65381;51.254;15.592;2023-03-16T08:35:04;20.30;57.90
76537;DHT22;65381;51.254;15.592;2023-03-16T08:37:34;20.90;56.60
76537;DHT22;65381;51.254;15.592;2023-03-16T08:40:03;20.90;55.40
76537;DHT22;65381;51.254;15.592;2023-03-16T08:42:39;20.30;55.70
76537;DHT22;65381;51.254;15.592;2023-03-16T08:45:10;21.00;58.50
76537;DHT22;65381;51.254;15.592;2023-03-16T08:47:43;21.40;54.70
76537;DHT22;65381;51.254;15.592;2023-03-16T08:50:13;20.90;55.00
76537;DHT22;65381;51.254;15.592;2023-03-16T08:52:43;21.70;54.70
76537;DHT22;65381;51.254;15.592;2023-03-16T08:55:10;22.10;54.00
76537;DHT22;65381;51.254;15.592;2023-03-16T08:57:42;21.80;52.90
76537;DHT22;65381;51.254;15.592;2023-03-16T09:00:12;21.10;51.60
76537;DHT22;65381;51.254;15.592;2023-03-16T09:02:41;20.30;52.10
76537;DHT22;65381;51.254;15.592;2023-03-16T09:05:11;20.10;51.90
76537;DHT22;65381;51.254;15.592;2023-03-16T09:07:40;20.20;52.40
76537;DHT22;65381;51.254;15.592;2023-03-16T09:10:09;20.50;52.40
76537;DHT22;65381;51.254;15.592;2023-03-16T09:12:42;20.40;52.00
76537;DHT22;65381;51.254;15.592;2023-03-16T09:15:11;20.80;50.50
76537;DHT22;65381;51.254;15.592;2023-03-16T09:17:41;20.70;50.20
76537;DHT22;65381;51.254;15.592;2023-03-16T09:20:12;20.70;50.00
76537;DHT22;65381;51.254;15.592;2023-03-16T09:23:02;20.80;51.00
76537;DHT22;65381;51.254;15.592;2023-03-16T09:25:31;20.50;49.20
76537;DHT22;65381;51.254;15.592;2023-03-16T09:28:00;20.00;48.60
76537;DHT22;65381;51.254;15.592;2023-03-16T09:30:29;20.00;48.30
76537;DHT22;65381;51.254;15.592;2023-03-16T09:32:58;19.50;47.40
76537;DHT22;65381;51.254;15.592;2023-03-16T09:35:27;18.90;47.40
76537;DHT22;65381;51.254;15.592;2023-03-16T09:37:56;18.90;47.60
76537;DHT22;65381;51.254;15.592;2023-03-16T09:40:35;19.20;47.30
76537;DHT22;65381;51.254;15.592;2023-03-16T09:45:56;21.10;46.50
76537;DHT22;65381;51.254;15.592;2023-03-16T09:48:31;21.70;47.00
76537;DHT22;65381;51.254;15.592;2023-03-16T09:51:01;22.50;45.80
76537;DHT22;65381;51.254;15.592;2023-03-16T09:53:34;23.90;44.80
76537;DHT22;65381;51.254;15.592;2023-03-16T09:56:17;24.20;44.20
76537;DHT22;65381;51.254;15.592;2023-03-16T09:58:47;25.00;43.30
76537;DHT22;65381;51.254;15.592;2023-03-16T10:01:37;24.70;43.00
76537;DHT22;65381;51.254;15.592;2023-03-16T10:04:28;24.90;42.20
76537;DHT22;65381;51.254;15.592;2023-03-16T10:12:18;23.20;42.80
76537;DHT22;65381;51.254;15.592;2023-03-16T10:14:50;23.90;42.50
76537;DHT22;65381;51.254;15.592;2023-03-16T10:17:29;24.40;43.00
76537;DHT22;65381;51.254;15.592;2023-03-16T10:20:07;24.50;40.80
76537;DHT22;65381;51.254;15.592;2023-03-16T10:22:41;23.90;40.70
76537;DHT22;65381;51.254;15.592;2023-03-16T10:28:03;24.20;40.00
76537;DHT22;65381;51.254;15.592;2023-03-16T10:30:36;23.80;39.40
76537;DHT22;65381;51.254;15.592;2023-03-16T10:33:25;23.10;39.70
76537;DHT22;65381;51.254;15.592;2023-03-16T10:38:47;23.90;39.20
76537;DHT22;65381;51.254;15.592;2023-03-16T10:43:50;22.90;39.00
76537;DHT22;65381;51.254;15.592;2023-03-16T10:46:21;23.00;40.00
76537;DHT22;65381;51.254;15.592;2023-03-16T10:48:56;23.50;39.60
76537;DHT22;65381;51.254;15.592;2023-03-16T10:51:33;24.20;38.50
76537;DHT22;65381;51.254;15.592;2023-03-16T10:54:14;24.40;38.60
76537;DHT22;65381;51.254;15.592;2023-03-16T10:56:43;24.70;38.20
76537;DHT22;65381;51.254;15.592;2023-03-16T11:01:47;25.30;37.30
76537;DHT22;65381;51.254;15.592;2023-03-16T11:04:18;24.80;36.90
76537;DHT22;65381;51.254;15.592;2023-03-16T11:06:55;25.30;37.50
76537;DHT22;65381;51.254;15.592;2023-03-16T11:09:34;26.40;37.20
76537;DHT22;65381;51.254;15.592;2023-03-16T11:12:24;27.40;36.60
76537;DHT22;65381;51.254;15.592;2023-03-16T11:14:53;27.30;36.40
76537;DHT22;65381;51.254;15.592;2023-03-16T11:17:35;27.10;36.20
76537;DHT22;65381;51.254;15.592;2023-03-16T11:20:08;26.90;36.00
76537;DHT22;65381;51.254;15.592;2023-03-16T11:22:40;27.30;36.10
76537;DHT22;65381;51.254;15.592;2023-03-16T11:25:26;27.40;35.30
76537;DHT22;65381;51.254;15.592;2023-03-16T11:48:56;25.50;36.70
76537;DHT22;65381;51.254;15.592;2023-03-16T11:57:40;23.60;32.30
76537;DHT22;65381;51.254;15.592;2023-03-16T12:05:47;22.10;33.10
76537;DHT22;65381;51.254;15.592;2023-03-16T12:14:26;21.30;33.90
76537;DHT22;65381;51.254;15.592;2023-03-16T12:22:35;21.00;33.50
76537;DHT22;65381;51.254;15.592;2023-03-16T12:25:21;21.00;33.70
76537;DHT22;65381;51.254;15.592;2023-03-16T12:27:53;21.20;34.10
76537;DHT22;65381;51.254;15.592;2023-03-16T12:36:42;22.50;33.50
76537;DHT22;65381;51.254;15.592;2023-03-16T12:45:28;22.50;33.20
76537;DHT22;65381;51.254;15.592;2023-03-16T12:49:09;21.80;32.90
76537;DHT22;65381;51.254;15.592;2023-03-16T12:51:06;20.70;33.00
76537;DHT22;65381;51.254;15.592;2023-03-16T12:53:44;19.70;33.70
76537;DHT22;65381;51.254;15.592;2023-03-16T12:56:28;19.30;33.90
76537;DHT22;65381;51.254;15.592;2023-03-16T12:59:00;19.70;34.30
76537;DHT22;65381;51.254;15.592;2023-03-16T13:01:36;21.10;34.30
76537;DHT22;65381;51.254;15.592;2023-03-16T13:04:20;21.90;33.50
76537;DHT22;65381;51.254;15.592;2023-03-16T13:06:59;21.80;33.50
76537;DHT22;65381;51.254;15.592;2023-03-16T13:09:29;22.00;33.70
76537;DHT22;65381;51.254;15.592;2023-03-16T13:12:00;22.30;33.50
76537;DHT22;65381;51.254;15.592;2023-03-16T13:14:40;21.90;33.10
76537;DHT22;65381;51.254;15.592;2023-03-16T13:17:31;21.00;33.60
76537;DHT22;65381;51.254;15.592;2023-03-16T13:20:06;21.10;34.40
76537;DHT22;65381;51.254;15.592;2023-03-16T13:26:14;21.70;34.00
76537;DHT22;65381;51.254;15.592;2023-03-16T13:28:49;21.60;33.80
76537;DHT22;65381;51.254;15.592;2023-03-16T13:31:35;21.60;33.90
76537;DHT22;65381;51.254;15.592;2023-03-16T13:34:06;21.50;33.50
76537;DHT22;65381;51.254;15.592;2023-03-16T13:36:40;20.90;33.90
76537;DHT22;65381;51.254;15.592;2023-03-16T13:39:22;20.50;34.40
76537;DHT22;65381;51.254;15.592;2023-03-16T13:42:01;20.10;33.90
76537;DHT22;65381;51.254;15.592;2023-03-16T13:44:31;19.30;34.30
76537;DHT22;65381;51.254;15.592;2023-03-16T13:47:05;19.00;34.60
76537;DHT22;65381;51.254;15.592;2023-03-16T13:49:43;18.90;34.40
76537;DHT22;65381;51.254;15.592;2023-03-16T13:54:58;18.20;34.30
76537;DHT22;65381;51.254;15.592;2023-03-16T13:57:39;18.00;34.60
76537;DHT22;65381;51.254;15.592;2023-03-16T14:00:28;18.40;34.70
76537;DHT22;65381;51.254;15.592;2023-03-16T14:03:13;18.30;34.20
76537;DHT22;65381;51.254;15.592;2023-03-16T14:05:41;18.00;34.20
76537;DHT22;65381;51.254;15.592;2023-03-16T14:08:19;17.60;34.20
76537;DHT22;65381;51.254;15.592;2023-03-16T14:10:49;17.20;33.90
76537;DHT22;65381;51.254;15.592;2023-03-16T14:16:02;16.40;34.40
76537;DHT22;65381;51.254;15.592;2023-03-16T14:18:35;16.70;34.30
76537;DHT22;65381;51.254;15.592;2023-03-16T14:21:07;16.90;34.20
76537;DHT22;65381;51.254;15.592;2023-03-16T14:23:42;16.80;33.90
76537;DHT22;65381;51.254;15.592;2023-03-16T14:26:16;16.40;34.00
76537;DHT22;65381;51.254;15.592;2023-03-16T14:29:17;16.20;34.20
76537;DHT22;65381;51.254;15.592;2023-03-16T14:31:50;16.20;34.20
76537;DHT22;65381;51.254;15.592;2023-03-16T14:37:11;15.30;34.20
76537;DHT22;65381;51.254;15.592;2023-03-16T14:39:41;15.20;34.50
76537;DHT22;65381;51.254;15.592;2023-03-16T14:42:23;15.20;34.40
76537;DHT22;65381;51.254;15.592;2023-03-16T14:44:58;15.00;34.20
76537;DHT22;65381;51.254;15.592;2023-03-16T14:47:28;14.40;34.40
76537;DHT22;65381;51.254;15.592;2023-03-16T14:50:05;13.90;34.60
76537;DHT22;65381;51.254;15.592;2023-03-16T14:52:35;13.40;34.60
76537;DHT22;65381;51.254;15.592;2023-03-16T14:55:16;13.00;34.40
76537;DHT22;65381;51.254;15.592;2023-03-16T14:57:46;12.50;34.50
76537;DHT22;65381;51.254;15.592;2023-03-16T15:00:18;11.90;34.50
76537;DHT22;65381;51.254;15.592;2023-03-16T15:03:06;11.40;34.70
76537;DHT22;65381;51.254;15.592;2023-03-16T15:05:38;11.00;34.90
76537;DHT22;65381;51.254;15.592;2023-03-16T15:08:15;10.80;35.00
76537;DHT22;65381;51.254;15.592;2023-03-16T15:10:45;10.60;34.90
76537;DHT22;65381;51.254;15.592;2023-03-16T15:13:15;10.30;34.90
76537;DHT22;65381;51.254;15.592;2023-03-16T15:16:03;10.00;35.00
76537;DHT22;65381;51.254;15.592;2023-03-16T15:18:33;9.80;34.80
76537;DHT22;65381;51.254;15.592;2023-03-16T15:21:13;9.60;34.80
76537;DHT22;65381;51.254;15.592;2023-03-16T15:23:43;9.40;35.00
76537;DHT22;65381;51.254;15.592;2023-03-16T15:26:17;9.40;35.00
76537;DHT22;65381;51.254;15.592;2023-03-16T15:28:46;9.30;34.90
76537;DHT22;65381;51.254;15.592;2023-03-16T15:31:15;9.20;34.90
76537;DHT22;65381;51.254;15.592;2023-03-16T15:33:44;9.10;35.00
76537;DHT22;65381;51.254;15.592;2023-03-16T15:36:18;9.10;35.00
76537;DHT22;65381;51.254;15.592;2023-03-16T15:38:50;9.00;35.00
76537;DHT22;65381;51.254;15.592;2023-03-16T15:41:20;9.00;34.90
76537;DHT22;65381;51.254;15.592;2023-03-16T15:43:57;8.90;35.00
76537;DHT22;65381;51.254;15.592;2023-03-16T15:46:28;8.80;35.00
76537;DHT22;65381;51.254;15.592;2023-03-16T15:48:57;8.70;35.00
76537;DHT22;65381;51.254;15.592;2023-03-16T15:51:28;8.70;35.10
76537;DHT22;65381;51.254;15.592;2023-03-16T15:53:59;8.60;35.00
76537;DHT22;65381;51.254;15.592;2023-03-16T15:56:35;8.60;35.10
76537;DHT22;65381;51.254;15.592;2023-03-16T15:59:20;8.60;35.10
76537;DHT22;65381;51.254;15.592;2023-03-16T16:01:49;8.50;35.00
76537;DHT22;65381;51.254;15.592;2023-03-16T16:04:21;8.40;35.10
76537;DHT22;65381;51.254;15.592;2023-03-16T16:06:52;8.30;35.10
76537;DHT22;65381;51.254;15.592;2023-03-16T16:09:22;8.30;35.20
76537;DHT22;65381;51.254;15.592;2023-03-16T16:11:50;8.20;35.30
76537;DHT22;65381;51.254;15.592;2023-03-16T16:14:23;8.10;35.40
76537;DHT22;65381;51.254;15.592;2023-03-16T16:16:54;8.00;35.40
76537;DHT22;65381;51.254;15.592;2023-03-16T16:19:22;8.00;35.50
76537;DHT22;65381;51.254;15.592;2023-03-16T16:21:52;7.90;35.60
76537;DHT22;65381;51.254;15.592;2023-03-16T16:24:20;7.80;35.60
76537;DHT22;65381;51.254;15.592;2023-03-16T16:26:49;7.80;35.70
76537;DHT22;65381;51.254;15.592;2023-03-16T16:29:24;7.70;35.70
76537;DHT22;65381;51.254;15.592;2023-03-16T16:31:54;7.70;35.70
76537;DHT22;65381;51.254;15.592;2023-03-16T16:34:23;7.60;35.70
76537;DHT22;65381;51.254;15.592;2023-03-16T16:36:53;7.50;35.80
76537;DHT22;65381;51.254;15.592;2023-03-16T16:39:23;7.20;35.90
76537;DHT22;65381;51.254;15.592;2023-03-16T16:41:52;7.20;36.10
76537;DHT22;65381;51.254;15.592;2023-03-16T16:44:26;7.00;36.10
76537;DHT22;65381;51.254;15.592;2023-03-16T16:47:00;6.90;36.20
76537;DHT22;65381;51.254;15.592;2023-03-16T16:49:30;6.80;36.30
76537;DHT22;65381;51.254;15.592;2023-03-16T16:52:00;6.70;36.30
76537;DHT22;65381;51.254;15.592;2023-03-16T16:54:30;6.50;36.40
76537;DHT22;65381;51.254;15.592;2023-03-16T16:57:00;6.40;36.50
76537;DHT22;65381;51.254;15.592;2023-03-16T16:59:36;6.30;36.50
76537;DHT22;65381;51.254;15.592;2023-03-16T17:04:54;6.00;36.60
76537;DHT22;65381;51.254;15.592;2023-03-16T17:07:28;6.00;36.60
76537;DHT22;65381;51.254;15.592;2023-03-16T17:09:58;5.80;36.60
76537;DHT22;65381;51.254;15.592;2023-03-16T17:12:34;5.70;36.70
76537;DHT22;65381;51.254;15.592;2023-03-16T17:15:20;5.60;36.80
76537;DHT22;65381;51.254;15.592;2023-03-16T17:17:50;5.50;36.80
76537;DHT22;65381;51.254;15.592;2023-03-16T17:20:21;5.30;36.80
76537;DHT22;65381;51.254;15.592;2023-03-16T17:22:53;5.30;36.90
76537;DHT22;65381;51.254;15.592;2023-03-16T17:25:23;5.10;37.00
76537;DHT22;65381;51.254;15.592;2023-03-16T17:27:54;5.00;37.00
76537;DHT22;65381;51.254;15.592;2023-03-16T17:30:27;4.90;37.10
76537;DHT22;65381;51.254;15.592;2023-03-16T17:33:03;4.90;37.20
76537;DHT22;65381;51.254;15.592;2023-03-16T17:35:36;4.80;37.30
76537;DHT22;65381;51.254;15.592;2023-03-16T17:38:26;4.80;37.30
76537;DHT22;65381;51.254;15.592;2023-03-16T17:40:55;4.70;37.40